Time;durP1;ratioP1;P1;durP2;ratioP2;P2;SDS_P1;SDS_P2;PMS_P1;PMS_P2;Temp;Humidity;BMP_temperature;BMP_pressure;BME280_temperature;BME280_humidity;BME280_pressure;Samples;Min_cycle;Max_cycle;Signal;HPM_P1;HPM_P2
2022/08/16 00:00:53;;;;;;;7.95;6.00;;;19.70;99.90;;;;;;5058089;28;20044;-84
2022/08/16 00:03:19;;;;;;;6.65;5.90;;;19.80;99.90;;;;;;5076055;28;20017;-84
2022/08/16 00:05:45;;;;;;;8.38;6.43;;;;;;;;;;5076547;28;20305;-84
2022/08/16 00:08:10;;;;;;;6.82;5.85;;;19.70;99.90;;;;;;5065710;28;20020;-84
2022/08/16 00:10:37;;;;;;;9.18;5.90;;;19.70;99.90;;;;;;5068830;28;20029;-80
2022/08/16 00:13:06;;;;;;;8.70;5.88;;;19.70;99.90;;;;;;5066288;28;20040;-82
2022/08/16 00:15:39;;;;;;;7.53;5.85;;;19.70;99.90;;;;;;5065305;28;20085;-83
2022/08/16 00:18:05;;;;;;;9.30;6.20;;;19.70;99.90;;;;;;5066889;28;20018;-82
2022/08/16 00:20:32;;;;;;;7.97;5.95;;;19.70;99.90;;;;;;5075234;28;20017;-84
2022/08/16 00:22:58;;;;;;;7.82;6.60;;;;;;;;;;5060404;28;20013;-83
2022/08/16 00:25:25;;;;;;;8.65;6.57;;;19.70;99.90;;;;;;5075687;28;20031;-82
2022/08/16 00:27:51;;;;;;;10.13;6.72;;;19.70;99.90;;;;;;5057829;28;20032;-81
2022/08/16 00:30:19;;;;;;;15.07;6.30;;;19.70;99.90;;;;;;5066024;28;20051;-81
2022/08/16 00:32:46;;;;;;;8.23;6.18;;;19.80;99.90;;;;;;5062873;28;20039;-81
2022/08/16 00:35:16;;;;;;;7.50;6.22;;;19.80;99.90;;;;;;5047584;28;20025;-81
2022/08/16 00:37:45;;;;;;;9.20;6.13;;;19.80;99.90;;;;;;5045004;28;20044;-82
2022/08/16 00:40:16;;;;;;;7.40;6.03;;;19.70;99.90;;;;;;5040196;28;20049;-83
2022/08/16 00:42:42;;;;;;;7.63;6.35;;;;;;;;;;5062089;28;20111;-81
2022/08/16 00:45:26;;;;;;;6.65;5.72;;;19.80;99.90;;;;;;5062550;28;20051;-79
2022/08/16 00:47:53;;;;;;;8.60;5.97;;;19.80;99.90;;;;;;5060566;28;20021;-80
2022/08/16 00:50:22;;;;;;;7.53;5.70;;;19.80;99.90;;;;;;5043840;28;20039;-82
2022/08/16 00:52:48;;;;;;;9.60;6.35;;;19.80;99.90;;;;;;5062270;28;20044;-84
2022/08/16 00:55:13;;;;;;;8.02;5.68;;;19.80;99.90;;;;;;5048193;28;20025;-83
2022/08/16 00:57:39;;;;;;;8.40;6.05;;;19.80;99.90;;;;;;5047817;28;20029;-81
2022/08/16 01:00:08;;;;;;;8.65;5.68;;;19.80;99.90;;;;;;5062327;28;20017;-78
2022/08/16 01:02:33;;;;;;;7.22;5.88;;;19.80;99.90;;;;;;5054773;28;20318;-82
2022/08/16 01:05:00;;;;;;;7.30;5.50;;;19.70;99.90;;;;;;5056196;28;20538;-81
2022/08/16 01:07:27;;;;;;;7.07;5.60;;;19.70;99.90;;;;;;5054923;28;20029;-80
2022/08/16 01:09:53;;;;;;;8.20;5.80;;;;;;;;;;5052158;28;20052;-80
2022/08/16 01:12:20;;;;;;;7.78;5.80;;;19.80;99.90;;;;;;5050191;28;20051;-81
2022/08/16 01:14:53;;;;;;;7.18;5.68;;;19.70;99.90;;;;;;5053986;28;20029;-81
2022/08/16 01:17:19;;;;;;;7.30;5.68;;;19.70;99.90;;;;;;5063348;28;20029;-79
2022/08/16 01:19:53;;;;;;;7.55;5.85;;;19.70;99.90;;;;;;5060824;28;20171;-82
2022/08/16 01:22:55;;;;;;;8.35;6.03;;;19.60;99.90;;;;;;5048580;28;20028;-82
2022/08/16 01:25:26;;;;;;;7.32;5.70;;;19.50;99.90;;;;;;5066695;28;20029;-81
2022/08/16 01:27:55;;;;;;;6.60;5.90;;;19.60;99.90;;;;;;5049775;28;20434;-81
2022/08/16 01:30:24;;;;;;;7.07;6.13;;;19.60;99.90;;;;;;5049343;28;20032;-81
2022/08/16 01:32:51;;;;;;;8.90;6.50;;;19.60;99.90;;;;;;5063470;28;20059;-83
2022/08/16 01:35:37;;;;;;;7.93;6.38;;;19.50;99.90;;;;;;5065699;28;20035;-83
2022/08/16 01:38:24;;;;;;;7.63;5.85;;;19.40;99.90;;;;;;5052058;28;20032;-80
2022/08/16 01:40:54;;;;;;;6.88;6.00;;;19.40;99.90;;;;;;5048737;28;20036;-81
2022/08/16 01:43:20;;;;;;;10.70;6.07;;;19.50;99.90;;;;;;5049704;28;20182;-81
2022/08/16 01:45:46;;;;;;;8.23;6.25;;;19.40;99.90;;;;;;5051880;28;20020;-82
2022/08/16 01:48:12;;;;;;;6.32;5.72;;;19.50;99.90;;;;;;5065903;28;20025;-82
2022/08/16 01:50:41;;;;;;;10.23;6.75;;;19.50;99.90;;;;;;5065499;28;20025;-82
2022/08/16 01:53:08;;;;;;;10.80;6.70;;;19.50;99.90;;;;;;5066877;28;20028;-79
2022/08/16 01:55:34;;;;;;;8.80;6.75;;;;;;;;;;5049008;28;20025;-81
2022/08/16 01:58:00;;;;;;;7.93;6.35;;;19.40;99.90;;;;;;5053999;28;20036;-81
2022/08/16 02:00:27;;;;;;;9.48;6.68;;;19.40;99.90;;;;;;5063914;28;20089;-81
2022/08/16 02:02:52;;;;;;;9.40;6.68;;;19.30;99.90;;;;;;5046219;28;20079;-80
2022/08/16 02:05:19;;;;;;;8.80;6.75;;;19.30;99.90;;;;;;5064703;28;20024;-81
2022/08/16 02:07:44;;;;;;;9.32;6.72;;;19.30;99.90;;;;;;5069928;28;20088;-80
2022/08/16 02:10:10;;;;;;;8.13;6.78;;;19.30;99.90;;;;;;5072711;28;20470;-82
2022/08/16 02:12:36;;;;;;;10.73;6.57;;;;;;;;;;5049672;28;20102;-79
2022/08/16 02:15:03;;;;;;;7.70;6.35;;;19.30;99.90;;;;;;5056190;28;20025;-79
2022/08/16 02:17:29;;;;;;;6.95;6.25;;;;;;;;;;5044651;28;20029;-78
2022/08/16 02:19:55;;;;;;;7.13;6.20;;;19.30;99.90;;;;;;5063936;28;20032;-81
2022/08/16 02:22:23;;;;;;;9.45;6.80;;;19.30;99.90;;;;;;5051694;28;20018;-79
2022/08/16 02:24:49;;;;;;;9.38;6.68;;;19.30;99.90;;;;;;5064572;28;20059;-80
2022/08/16 02:27:16;;;;;;;9.43;6.82;;;;;;;;;;5054656;28;20024;-80
2022/08/16 02:29:42;;;;;;;8.85;6.55;;;19.40;99.90;;;;;;5062168;28;20025;-83
2022/08/16 02:32:11;;;;;;;9.10;7.18;;;19.40;99.90;;;;;;5045682;28;20368;-80
2022/08/16 02:34:37;;;;;;;8.73;7.05;;;19.40;99.90;;;;;;5064293;28;20025;-81
2022/08/16 02:37:03;;;;;;;7.90;7.10;;;19.40;99.90;;;;;;5063340;28;20025;-81
2022/08/16 02:39:28;;;;;;;9.80;6.65;;;19.40;99.90;;;;;;5046409;28;20040;-80
2022/08/16 02:41:54;;;;;;;9.50;6.55;;;19.40;99.90;;;;;;5064425;28;20021;-80
2022/08/16 02:44:22;;;;;;;9.57;7.60;;;20.10;99.90;;;;;;5057339;28;20036;-80
2022/08/16 02:46:48;;;;;;;9.07;7.15;;;19.50;99.90;;;;;;5053929;28;20033;-81
2022/08/16 02:49:13;;;;;;;8.10;7.25;;;19.50;99.90;;;;;;5064233;28;20029;-81
2022/08/16 02:51:41;;;;;;;8.80;6.85;;;19.60;99.90;;;;;;5059713;28;20055;-77
2022/08/16 02:54:08;;;;;;;8.73;7.18;;;19.50;99.90;;;;;;5068572;28;20056;-83
2022/08/16 02:56:34;;;;;;;9.05;7.28;;;19.40;99.90;;;;;;5071966;28;20024;-81
2022/08/16 02:59:00;;;;;;;10.85;6.90;;;19.50;99.90;;;;;;5064106;28;20157;-82
2022/08/16 03:01:31;;;;;;;9.60;7.00;;;19.50;99.90;;;;;;5058659;28;20032;-82
2022/08/16 03:04:00;;;;;;;9.43;7.00;;;19.50;99.90;;;;;;5051511;28;20036;-80
2022/08/16 03:06:26;;;;;;;9.82;6.80;;;;;;;;;;5061539;28;20028;-81
2022/08/16 03:08:53;;;;;;;7.82;6.72;;;19.40;99.90;;;;;;5062148;28;20032;-83
2022/08/16 03:11:19;;;;;;;9.50;7.32;;;19.50;99.90;;;;;;5062316;28;20025;-79
2022/08/16 03:13:46;;;;;;;8.10;6.20;;;19.40;99.90;;;;;;5062739;28;20033;-82
2022/08/16 03:16:12;;;;;;;9.05;6.68;;;19.40;99.90;;;;;;5049702;28;20036;-80
2022/08/16 03:18:38;;;;;;;7.97;6.55;;;19.40;99.90;;;;;;5062231;28;20515;-79
2022/08/16 03:21:06;;;;;;;8.55;6.78;;;19.40;99.90;;;;;;5041734;28;20040;-81
2022/08/16 03:23:32;;;;;;;7.63;6.82;;;19.30;99.90;;;;;;5039175;28;20021;-81
2022/08/16 03:25:58;;;;;;;9.00;7.15;;;19.30;99.90;;;;;;5056240;28;20025;-80
2022/08/16 03:28:24;;;;;;;10.23;7.53;;;19.30;99.90;;;;;;5064842;28;20052;-82
2022/08/16 03:30:50;;;;;;;8.30;7.03;;;;;;;;;;5045208;28;20056;-83
2022/08/16 03:33:15;;;;;;;8.55;6.80;;;19.20;99.90;;;;;;5052351;28;20410;-83
2022/08/16 03:35:42;;;;;;;9.43;7.47;;;19.10;99.90;;;;;;5053896;28;20029;-81
2022/08/16 03:38:10;;;;;;;11.52;7.38;;;19.00;99.90;;;;;;5061214;28;20032;-81
2022/08/16 03:40:37;;;;;;;7.90;6.95;;;;;;;;;;5064160;28;20025;-81
2022/08/16 03:43:05;;;;;;;7.88;7.07;;;19.00;99.90;;;;;;5049748;28;20037;-83
2022/08/16 03:45:32;;;;;;;8.55;7.22;;;18.90;99.90;;;;;;5065031;28;20029;-79
2022/08/16 03:47:59;;;;;;;10.63;7.78;;;18.90;99.90;;;;;;5063968;28;20021;-81
2022/08/16 03:50:25;;;;;;;10.68;7.63;;;18.90;99.90;;;;;;5046079;28;20036;-81
2022/08/16 03:52:51;;;;;;;12.30;8.07;;;18.90;99.90;;;;;;5050898;28;20037;-80
2022/08/16 03:55:19;;;;;;;9.98;7.78;;;18.90;99.90;;;;;;5044612;28;20025;-79
2022/08/16 03:57:45;;;;;;;9.80;7.60;;;;;;;;;;5063000;28;20021;-79
2022/08/16 04:00:14;;;;;;;8.45;7.43;;;18.90;99.90;;;;;;5051301;28;20029;-80
2022/08/16 04:02:44;;;;;;;9.38;7.68;;;18.90;99.90;;;;;;5045044;28;20036;-81
2022/08/16 04:05:11;;;;;;;9.90;7.78;;;18.90;99.90;;;;;;5045282;28;20037;-81
2022/08/16 04:07:37;;;;;;;13.02;7.82;;;20.20;99.90;;;;;;5050670;28;20503;-78
2022/08/16 04:10:04;;;;;;;10.98;7.47;;;18.80;99.90;;;;;;5052836;28;20025;-82
2022/08/16 04:12:30;;;;;;;9.75;7.60;;;18.80;99.90;;;;;;5058825;28;20582;-78
2022/08/16 04:14:56;;;;;;;11.48;8.35;;;18.80;99.90;;;;;;5065081;28;20056;-80
2022/08/16 04:17:21;;;;;;;10.85;8.48;;;18.70;99.90;;;;;;5055693;28;20064;-81
2022/08/16 04:19:47;;;;;;;9.05;7.28;;;18.70;99.90;;;;;;5056335;28;20562;-81
2022/08/16 04:22:13;;;;;;;12.95;7.47;;;18.70;99.90;;;;;;5055749;28;20120;-81
2022/08/16 04:24:39;;;;;;;13.77;9.07;;;;;;;;;;5065372;28;20025;-82
2022/08/16 04:27:05;;;;;;;11.20;8.02;;;18.70;99.90;;;;;;5075643;28;20029;-82
2022/08/16 04:29:32;;;;;;;12.05;8.27;;;;;;;;;;5055961;28;20028;-83
2022/08/16 04:31:58;;;;;;;10.90;7.93;;;18.80;99.90;;;;;;5047546;28;20021;-83
2022/08/16 04:34:30;;;;;;;9.73;7.70;;;18.70;99.90;;;;;;5066501;28;20071;-81
2022/08/16 04:36:57;;;;;;;11.25;8.48;;;18.70;99.90;;;;;;5051153;28;20025;-84
2022/08/16 04:39:24;;;;;;;11.57;8.27;;;18.80;99.90;;;;;;5064429;28;20017;-80
2022/08/16 04:41:50;;;;;;;10.10;8.02;;;;;;;;;;5065121;28;20032;-78
2022/08/16 04:44:16;;;;;;;10.48;8.05;;;;;;;;;;5050539;28;20035;-80
2022/08/16 04:46:42;;;;;;;9.35;7.40;;;18.80;99.90;;;;;;5046869;28;20059;-80
2022/08/16 04:49:10;;;;;;;9.25;7.57;;;18.90;99.90;;;;;;5054714;28;20081;-80
2022/08/16 04:51:37;;;;;;;11.88;7.68;;;18.90;99.90;;;;;;5071208;28;20052;-82
2022/08/16 04:54:03;;;;;;;8.13;7.28;;;;;;;;;;5054788;28;20470;-81
2022/08/16 04:56:29;;;;;;;12.52;7.82;;;18.90;99.90;;;;;;5056018;28;20029;-78
2022/08/16 04:58:56;;;;;;;10.35;7.80;;;;;;;;;;5054204;28;20036;-79
2022/08/16 05:01:21;;;;;;;11.82;7.93;;;18.90;99.90;;;;;;5039237;28;20048;-81
2022/08/16 05:03:47;;;;;;;8.30;7.00;;;18.90;99.90;;;;;;5036904;28;20025;-79
2022/08/16 05:06:13;;;;;;;9.40;7.82;;;18.90;99.90;;;;;;5058596;28;20057;-80
2022/08/16 05:08:39;;;;;;;11.43;8.05;;;18.90;99.90;;;;;;5058196;28;20109;-80
2022/08/16 05:11:07;;;;;;;8.82;7.60;;;18.80;99.90;;;;;;5058093;28;20025;-79
2022/08/16 05:13:35;;;;;;;9.68;7.60;;;18.80;99.90;;;;;;5058461;28;20021;-79
2022/08/16 05:16:00;;;;;;;11.20;8.40;;;18.90;99.90;;;;;;5059492;28;20036;-81
2022/08/16 05:18:28;;;;;;;9.95;8.25;;;;;;;;;;5053711;28;20041;-81
2022/08/16 05:20:54;;;;;;;9.07;7.88;;;;;;;;;;5058478;28;20475;-79
2022/08/16 05:23:20;;;;;;;12.98;7.75;;;;;;;;;;5061056;28;20050;-83
2022/08/16 05:25:45;;;;;;;9.65;7.82;;;18.90;99.90;;;;;;5071423;28;20111;-82
2022/08/16 05:28:12;;;;;;;10.23;8.02;;;;;;;;;;5047079;28;20123;-82
2022/08/16 05:30:38;;;;;;;9.32;8.15;;;;;;;;;;5048404;28;20044;-83
2022/08/16 05:33:04;;;;;;;8.73;7.60;;;18.90;99.90;;;;;;5048150;28;20025;-82
2022/08/16 05:35:30;;;;;;;10.68;8.38;;;;;;;;;;5064362;28;20032;-82
2022/08/16 05:37:56;;;;;;;11.63;8.93;;;18.30;99.90;;;;;;5056247;28;20540;-79
2022/08/16 05:40:22;;;;;;;10.35;8.18;;;;;;;;;;5062799;28;20092;-81
2022/08/16 05:42:48;;;;;;;11.05;8.45;;;19.10;99.90;;;;;;5079758;28;20029;-81
2022/08/16 05:45:13;;;;;;;15.25;9.65;;;19.30;99.90;;;;;;5078836;28;20025;-80
2022/08/16 05:47:39;;;;;;;12.27;8.60;;;19.20;99.90;;;;;;5078826;28;20032;-83
2022/08/16 05:50:06;;;;;;;11.02;8.00;;;19.30;99.90;;;;;;5078305;28;20055;-83
2022/08/16 05:52:32;;;;;;;11.57;7.45;;;;;;;;;;5077678;28;20028;-80
2022/08/16 05:54:58;;;;;;;12.07;7.78;;;;;;;;;;5067246;28;20035;-80
2022/08/16 05:57:24;;;;;;;12.40;7.45;;;19.60;99.90;;;;;;5057422;28;20021;-82
2022/08/16 05:59:50;;;;;;;8.60;7.70;;;19.70;99.90;;;;;;5062409;28;20138;-79
2022/08/16 06:02:17;;;;;;;9.70;8.30;;;20.10;99.90;;;;;;5049261;28;20024;-82
2022/08/16 06:04:43;;;;;;;7.47;6.68;;;20.10;99.90;;;;;;5041279;28;20112;-79
2022/08/16 06:07:09;;;;;;;9.68;7.85;;;20.30;99.90;;;;;;5059868;28;20041;-78
2022/08/16 06:09:35;;;;;;;11.45;8.90;;;20.30;99.90;;;;;;5058872;28;20025;-78
2022/08/16 06:12:01;;;;;;;13.10;9.40;;;20.30;99.90;;;;;;5056218;28;20032;-79
2022/08/16 06:14:28;;;;;;;10.60;8.40;;;20.30;99.90;;;;;;5062283;28;20116;-80
2022/08/16 06:16:54;;;;;;;8.50;7.47;;;20.30;99.90;;;;;;5060528;28;20040;-79
2022/08/16 06:19:20;;;;;;;9.10;7.55;;;20.50;99.90;;;;;;5041757;28;20021;-79
2022/08/16 06:21:46;;;;;;;9.43;8.32;;;20.40;99.90;;;;;;5057940;28;20481;-79
2022/08/16 06:24:12;;;;;;;11.13;8.75;;;;;;;;;;5042795;28;20020;-80
2022/08/16 06:26:38;;;;;;;12.90;9.57;;;20.40;99.90;;;;;;5061468;28;20493;-79
2022/08/16 06:29:04;;;;;;;14.18;10.57;;;20.50;99.90;;;;;;5053851;28;20045;-81
2022/08/16 06:31:30;;;;;;;13.13;10.20;;;20.30;99.90;;;;;;5053213;28;20117;-81
2022/08/16 06:33:55;;;;;;;13.30;9.02;;;20.30;99.90;;;;;;5041545;28;20510;-78
2022/08/16 06:36:22;;;;;;;16.05;10.43;;;20.40;99.90;;;;;;5043979;28;20033;-81
2022/08/16 06:38:49;;;;;;;14.10;9.45;;;;;;;;;;5060853;28;20021;-79
2022/08/16 06:41:14;;;;;;;14.27;8.98;;;20.50;99.90;;;;;;5061595;28;20482;-81
2022/08/16 06:43:40;;;;;;;14.15;8.23;;;20.40;99.90;;;;;;5054765;28;20036;-81
2022/08/16 06:46:09;;;;;;;10.68;8.75;;;20.70;99.90;;;;;;5062489;28;20055;-79
2022/08/16 06:48:35;;;;;;;16.38;10.02;;;20.60;99.90;;;;;;5061987;28;20017;-80
2022/08/16 06:51:03;;;;;;;11.80;9.13;;;20.60;99.90;;;;;;5058793;28;20031;-81
2022/08/16 06:53:32;;;;;;;12.68;9.98;;;20.60;99.90;;;;;;5077252;28;20024;-79
2022/08/16 06:55:58;;;;;;;16.65;10.65;;;20.60;99.90;;;;;;5061117;28;20116;-80
2022/08/16 06:58:24;;;;;;;15.85;11.13;;;;;;;;;;5068381;28;20032;-80
2022/08/16 07:00:49;;;;;;;14.13;10.48;;;20.90;99.90;;;;;;5071908;28;20033;-80
2022/08/16 07:03:17;;;;;;;15.20;11.10;;;;;;;;;;5066988;28;20059;-80
2022/08/16 07:05:42;;;;;;;13.63;10.45;;;20.90;99.90;;;;;;5063304;28;20082;-82
2022/08/16 07:08:10;;;;;;;13.63;10.32;;;20.90;99.90;;;;;;5060635;28;20029;-79
2022/08/16 07:10:36;;;;;;;16.25;10.48;;;20.90;99.90;;;;;;5059318;28;20025;-79
2022/08/16 07:13:02;;;;;;;16.23;10.88;;;21.00;99.90;;;;;;5059800;28;20032;-78
2022/08/16 07:15:28;;;;;;;14.55;10.77;;;;;;;;;;5029857;28;20080;-79
2022/08/16 07:17:54;;;;;;;16.65;11.45;;;21.30;99.90;;;;;;5044933;28;20029;-78
2022/08/16 07:20:21;;;;;;;15.32;10.60;;;21.50;99.90;;;;;;5043587;28;20045;-82
2022/08/16 07:22:47;;;;;;;15.77;11.75;;;21.50;99.90;;;;;;5047231;28;20033;-81
2022/08/16 07:25:14;;;;;;;20.83;11.45;;;21.40;99.90;;;;;;5067979;28;20036;-79
2022/08/16 07:27:40;;;;;;;14.82;11.98;;;21.50;99.90;;;;;;5065577;28;20115;-80
2022/08/16 07:30:12;;;;;;;14.38;10.50;;;21.50;99.90;;;;;;5062368;28;20021;-79
2022/08/16 07:32:38;;;;;;;16.08;11.02;;;21.50;99.90;;;;;;5042462;28;20020;-81
2022/08/16 07:35:04;;;;;;;14.63;10.82;;;21.60;99.90;;;;;;5038861;28;20078;-79
2022/08/16 07:37:30;;;;;;;13.23;10.48;;;;;;;;;;5038939;28;20021;-80
2022/08/16 07:39:56;;;;;;;14.48;9.63;;;21.90;99.90;;;;;;5039688;28;20060;-81
2022/08/16 07:42:22;;;;;;;12.85;10.10;;;22.00;99.90;;;;;;5058746;28;20454;-80
2022/08/16 07:44:47;;;;;;;12.68;9.60;;;22.00;99.90;;;;;;5058690;28;20116;-80
2022/08/16 07:47:13;;;;;;;12.48;9.65;;;22.20;99.90;;;;;;5042315;28;20021;-83
2022/08/16 07:49:39;;;;;;;13.48;9.63;;;22.40;99.90;;;;;;5061200;28;20025;-82
2022/08/16 07:52:05;;;;;;;14.73;10.15;;;22.40;99.90;;;;;;5062812;28;20055;-80
2022/08/16 07:54:30;;;;;;;12.68;9.73;;;22.60;99.90;;;;;;5062444;28;20025;-81
2022/08/16 07:56:56;;;;;;;12.48;8.85;;;22.70;99.90;;;;;;5049416;28;20089;-83
2022/08/16 07:59:23;;;;;;;14.13;8.68;;;22.80;99.90;;;;;;5078681;28;20045;-81
2022/08/16 08:01:51;;;;;;;10.70;9.13;;;22.70;99.90;;;;;;5076407;28;20047;-80
2022/08/16 08:04:18;;;;;;;10.25;8.25;;;22.60;99.90;;;;;;5076140;28;20013;-82
2022/08/16 08:06:44;;;;;;;11.50;8.57;;;22.70;99.90;;;;;;5057269;28;20013;-80
2022/08/16 08:09:10;;;;;;;13.07;8.85;;;;;;;;;;5063914;28;20029;-81
2022/08/16 08:11:36;;;;;;;12.50;7.90;;;22.80;99.90;;;;;;5060457;28;20029;-81
2022/08/16 08:14:02;;;;;;;14.40;7.70;;;23.10;99.90;;;;;;5049345;28;20097;-83
2022/08/16 08:16:28;;;;;;;11.95;8.18;;;;;;;;;;5061770;28;20029;-82
2022/08/16 08:18:54;;;;;;;9.38;8.48;;;23.40;99.90;;;;;;5062130;28;20445;-81
2022/08/16 08:21:24;;;;;;;11.90;7.85;;;23.50;99.90;;;;;;5040916;28;20033;-84
2022/08/16 08:23:51;;;;;;;13.20;7.47;;;23.80;99.90;;;;;;5048012;28;20116;-83
2022/08/16 08:26:18;;;;;;;8.68;7.55;;;23.90;99.90;;;;;;5052640;28;20089;-81
2022/08/16 08:28:44;;;;;;;11.00;7.18;;;;;;;;;;5069454;28;20021;-83
2022/08/16 08:31:10;;;;;;;12.07;7.82;;;;;;;;;;5054534;28;20037;-84
2022/08/16 08:33:36;;;;;;;8.50;6.82;;;24.00;99.90;;;;;;5070273;28;20093;-82
2022/08/16 08:36:06;;;;;;;11.40;7.70;;;23.70;99.90;;;;;;5069114;28;20029;-82
2022/08/16 08:38:32;;;;;;;13.07;7.40;;;;;;;;;;5048751;28;20106;-82
2022/08/16 08:40:58;;;;;;;10.75;7.13;;;;;;;;;;5066045;28;20062;-82
2022/08/16 08:43:24;;;;;;;9.73;7.05;;;23.60;99.90;;;;;;5041920;28;20033;-83
2022/08/16 08:45:54;;;;;;;11.07;6.85;;;23.50;99.90;;;;;;5079314;28;20036;-82
2022/08/16 08:48:21;;;;;;;10.30;7.60;;;23.50;99.90;;;;;;5067339;28;20025;-83
2022/08/16 08:50:46;;;;;;;9.73;7.07;;;23.60;99.90;;;;;;5057379;28;20025;-84
2022/08/16 08:53:12;;;;;;;7.93;6.70;;;23.80;99.90;;;;;;5058639;28;20071;-81
2022/08/16 08:55:41;;;;;;;9.25;6.55;;;24.20;99.90;;;;;;5074775;28;20020;-82
2022/08/16 08:58:07;;;;;;;10.48;6.97;;;24.40;99.90;;;;;;5056387;28;20048;-81
2022/08/16 09:00:34;;;;;;;10.25;6.97;;;24.70;99.90;;;;;;5052668;28;20043;-82
2022/08/16 09:03:00;;;;;;;8.15;6.80;;;;;;;;;;5072188;28;20231;-80
2022/08/16 09:05:26;;;;;;;9.80;6.32;;;;;;;;;;5071906;28;20108;-82
2022/08/16 09:07:53;;;;;;;8.38;6.45;;;25.10;99.90;;;;;;5072136;28;20025;-83
2022/08/16 09:10:19;;;;;;;8.00;6.25;;;;;;;;;;5053757;28;20405;-82
2022/08/16 09:12:46;;;;;;;9.13;6.57;;;;;;;;;;5052505;28;20025;-85
2022/08/16 09:15:14;;;;;;;8.18;5.60;;;25.10;99.90;;;;;;5072532;28;20120;-82
2022/08/16 09:17:41;;;;;;;9.00;4.63;;;;;;;;;;5069607;28;20047;-83
2022/08/16 09:20:09;;;;;;;9.38;5.57;;;24.50;99.90;;;;;;5071928;28;20028;-81
2022/08/16 09:22:36;;;;;;;7.13;5.40;;;24.50;99.90;;;;;;5066211;28;20036;-80
2022/08/16 09:25:02;;;;;;;9.10;4.85;;;24.60;99.90;;;;;;5073205;28;20037;-82
2022/08/16 09:27:28;;;;;;;7.15;4.90;;;;;;;;;;5057202;28;20021;-84
2022/08/16 09:29:54;;;;;;;8.20;4.90;;;;;;;;;;5069293;28;20048;-82
2022/08/16 09:32:20;;;;;;;5.53;4.22;;;;;;;;;;5075430;28;20074;-82
2022/08/16 09:34:46;;;;;;;7.43;4.47;;;;;;;;;;5051997;28;20039;-82
2022/08/16 09:37:14;;;;;;;6.80;4.85;;;;;;;;;;5070543;28;20068;-81
2022/08/16 09:39:41;;;;;;;5.90;4.30;;;;;;;;;;5053546;28;20067;-79
2022/08/16 09:42:07;;;;;;;6.57;4.20;;;;;;;;;;5055770;28;20049;-81
2022/08/16 09:44:34;;;;;;;9.43;5.30;;;;;;;;;;5071315;28;20029;-82
2022/08/16 09:47:00;;;;;;;7.28;5.03;;;;;;;;;;5053744;28;20052;-83
2022/08/16 09:49:26;;;;;;;6.13;5.03;;;;;;;;;;5053591;28;20036;-81
2022/08/16 09:51:53;;;;;;;7.78;5.07;;;25.90;97.50;;;;;;5057219;28;20060;-81
2022/08/16 09:54:26;;;;;;;6.35;5.38;;;25.70;97.30;;;;;;5065051;28;20091;-81
2022/08/16 09:56:52;;;;;;;7.53;5.20;;;25.50;98.20;;;;;;5051996;28;20394;-81
2022/08/16 09:59:19;;;;;;;4.55;3.70;;;;;;;;;;5066729;28;20028;-80
2022/08/16 10:01:47;;;;;;;4.47;3.63;;;;;;;;;;5067116;28;20081;-81
2022/08/16 10:04:14;;;;;;;4.15;3.65;;;25.90;95.60;;;;;;5068160;28;20013;-81
2022/08/16 10:06:46;;;;;;;4.85;3.60;;;;;;;;;;5068301;28;20067;-80
2022/08/16 10:09:13;;;;;;;4.65;3.50;;;26.70;94.50;;;;;;5063756;28;20041;-81
2022/08/16 10:14:30;;;;;;;5.55;3.88;;;26.90;93.80;;;;;;5060478;28;20032;-79
2022/08/16 10:16:58;;;;;;;6.60;3.72;;;27.10;93.30;;;;;;5065636;28;20033;-81
2022/08/16 10:19:24;;;;;;;4.35;3.20;;;27.10;93.30;;;;;;5045826;28;20029;-80
2022/08/16 10:21:50;;;;;;;3.92;3.00;;;;;;;;;;5057272;28;20017;-82
2022/08/16 10:24:18;;;;;;;6.40;3.60;;;;;;;;;;5056663;28;20422;-82
2022/08/16 10:26:44;;;;;;;4.78;3.70;;;;;;;;;;5067653;28;20021;-81
2022/08/16 10:29:10;;;;;;;7.13;4.40;;;26.20;93.50;;;;;;5065455;28;20021;-81
2022/08/16 10:31:36;;;;;;;5.80;4.10;;;;;;;;;;5047208;28;20025;-80
2022/08/16 10:34:03;;;;;;;4.18;3.78;;;;;;;;;;5047789;28;20029;-80
2022/08/16 10:36:29;;;;;;;5.13;3.65;;;;;;;;;;5047390;28;20117;-80
2022/08/16 10:38:55;;;;;;;6.40;3.88;;;;;;;;;;5052701;28;20037;-82
2022/08/16 10:41:21;;;;;;;8.77;3.95;;;26.10;93.80;;;;;;5067924;28;20029;-80
2022/08/16 10:43:47;;;;;;;8.20;4.45;;;;;;;;;;5067451;28;20110;-81
2022/08/16 10:46:14;;;;;;;4.32;3.70;;;26.60;93.40;;;;;;5066853;28;20055;-80
2022/08/16 10:48:42;;;;;;;5.05;3.45;;;26.70;93.00;;;;;;5047866;28;20037;-82
2022/08/16 10:51:08;;;;;;;3.85;3.40;;;26.70;93.20;;;;;;5048024;28;20120;-81
2022/08/16 10:53:35;;;;;;;5.35;3.80;;;;;;;;;;5065454;28;20025;-81
2022/08/16 10:56:03;;;;;;;5.65;3.75;;;26.50;93.40;;;;;;5065697;28;20084;-82
2022/08/16 10:58:30;;;;;;;4.28;3.78;;;26.40;93.70;;;;;;5064959;28;20029;-81
2022/08/16 11:00:55;;;;;;;4.60;4.00;;;26.30;93.80;;;;;;5065029;28;20506;-81
2022/08/16 11:03:21;;;;;;;5.72;3.83;;;26.20;93.60;;;;;;5066711;28;20044;-81
2022/08/16 11:05:47;;;;;;;7.60;4.70;;;26.30;93.50;;;;;;5051485;28;20036;-81
2022/08/16 11:08:12;;;;;;;5.65;4.20;;;26.30;93.40;;;;;;5063243;28;20094;-81
2022/08/16 11:10:42;;;;;;;7.40;3.70;;;26.70;93.20;;;;;;5049224;28;20025;-81
2022/08/16 11:13:09;;;;;;;7.43;3.90;;;27.10;92.70;;;;;;5066438;28;20093;-82
2022/08/16 11:15:36;;;;;;;4.70;3.42;;;27.80;91.30;;;;;;5066913;28;20040;-82
2022/08/16 11:18:04;;;;;;;6.53;3.78;;;28.10;90.70;;;;;;5047028;28;20025;-79
2022/08/16 11:20:30;;;;;;;4.97;3.60;;;;;;;;;;5047371;28;20029;-80
2022/08/16 11:22:55;;;;;;;4.85;3.28;;;28.40;90.00;;;;;;5065203;28;20025;-82
2022/08/16 11:25:27;;;;;;;4.63;3.25;;;28.30;86.50;;;;;;5072347;28;20029;-79
2022/08/16 11:27:55;;;;;;;3.70;3.38;;;28.20;87.40;;;;;;5062296;28;20056;-81
2022/08/16 11:30:21;;;;;;;4.32;3.58;;;28.30;88.20;;;;;;5076421;28;20056;-79
2022/08/16 11:32:47;;;;;;;4.90;3.42;;;;;;;;;;5079189;28;20021;-80
2022/08/16 11:35:21;;;;;;;5.88;3.50;;;28.70;86.30;;;;;;5043564;28;20060;-81
2022/08/16 11:37:55;;;;;;;5.07;3.17;;;28.70;87.00;;;;;;5050555;28;20125;-78
2022/08/16 11:40:22;;;;;;;6.55;3.30;;;29.10;86.00;;;;;;5063358;28;20024;-79
2022/08/16 11:42:48;;;;;;;5.88;3.55;;;;;;;;;;5043073;28;20499;-79
2022/08/16 11:45:15;;;;;;;6.18;4.20;;;29.10;83.30;;;;;;5064533;28;20013;-80
2022/08/16 11:47:41;;;;;;;4.72;3.03;;;;;;;;;;5061995;28;20051;-80
2022/08/16 11:50:08;;;;;;;5.15;2.70;;;;;;;;;;5062705;28;20033;-81
2022/08/16 11:52:38;;;;;;;4.00;3.22;;;29.10;80.50;;;;;;5045411;28;20017;-81
2022/08/16 11:55:06;;;;;;;3.00;2.35;;;28.50;80.20;;;;;;5066597;28;20020;-80
2022/08/16 11:57:33;;;;;;;3.00;2.70;;;28.50;80.80;;;;;;5030045;28;20052;-79
2022/08/16 11:59:59;;;;;;;6.07;3.13;;;;;;;;;;5058459;28;20442;-81
2022/08/16 12:02:25;;;;;;;4.20;2.80;;;;;;;;;;5059035;28;20078;-81
2022/08/16 12:04:51;;;;;;;3.15;2.70;;;28.50;81.10;;;;;;5060500;28;20033;-81
2022/08/16 12:07:17;;;;;;;4.05;2.92;;;;;;;;;;5048263;28;20055;-81
2022/08/16 12:09:43;;;;;;;5.28;3.47;;;;;;;;;;5042354;28;20502;-82
2022/08/16 12:12:08;;;;;;;6.03;3.08;;;28.70;81.40;;;;;;5045896;28;20025;-81
2022/08/16 12:14:34;;;;;;;5.22;3.13;;;28.90;81.00;;;;;;5056156;28;20075;-79
2022/08/16 12:17:01;;;;;;;4.25;3.30;;;29.10;80.40;;;;;;5053919;28;20453;-80
2022/08/16 12:19:28;;;;;;;5.25;3.83;;;29.00;81.30;;;;;;5043579;28;20044;-81
2022/08/16 12:21:54;;;;;;;6.28;3.50;;;;;;;;;;5046844;28;20491;-81
2022/08/16 12:24:20;;;;;;;6.78;3.38;;;28.30;82.70;;;;;;5058209;28;20032;-81
2022/08/16 12:26:47;;;;;;;3.55;3.13;;;28.10;83.10;;;;;;5031422;28;20128;-82
2022/08/16 12:29:13;;;;;;;13.25;9.30;;;;;;;;;;5061071;28;20024;-80
2022/08/16 12:31:38;;;;;;;8.43;4.47;;;27.80;82.90;;;;;;5044076;28;20013;-81
2022/08/16 12:34:06;;;;;;;7.15;4.85;;;27.80;84.00;;;;;;5059309;28;20051;-80
2022/08/16 12:36:35;;;;;;;6.07;4.30;;;28.00;83.00;;;;;;5063977;28;20017;-81
2022/08/16 12:39:03;;;;;;;4.80;3.30;;;28.00;83.40;;;;;;5046974;28;20110;-80
2022/08/16 12:41:31;;;;;;;3.63;3.08;;;;;;;;;;5054021;28;20049;-80
2022/08/16 12:43:57;;;;;;;5.80;3.15;;;;;;;;;;5060647;28;20619;-82
2022/08/16 12:46:23;;;;;;;4.10;3.35;;;;;;;;;;5047316;28;20100;-82
2022/08/16 12:48:58;;;;;;;4.78;3.55;;;;;;;;;;5064868;28;20052;-80
2022/08/16 12:51:30;;;;;;;3.40;3.03;;;27.60;82.70;;;;;;5056373;28;20120;-82
2022/08/16 12:53:57;;;;;;;5.53;3.35;;;27.50;82.80;;;;;;5048700;28;20049;-83
2022/08/16 12:56:27;;;;;;;3.83;2.97;;;27.30;83.10;;;;;;5047599;28;20056;-82
2022/08/16 12:58:54;;;;;;;4.72;3.20;;;27.20;83.70;;;;;;5059020;28;20102;-83
2022/08/16 13:01:25;;;;;;;3.47;2.90;;;27.20;83.80;;;;;;5047157;28;20044;-83
2022/08/16 13:03:54;;;;;;;4.75;3.28;;;27.50;83.00;;;;;;5051641;28;20029;-82
2022/08/16 13:06:20;;;;;;;4.35;3.03;;;27.50;82.30;;;;;;5064266;28;20029;-81
2022/08/16 13:08:47;;;;;;;4.63;2.83;;;28.00;82.70;;;;;;5064539;28;20049;-81
2022/08/16 13:11:15;;;;;;;4.70;2.80;;;;;;;;;;5065631;28;20049;-81